sensor_id;sensor_type;location;lat;lon;timestamp;pressure;altitude;pressure_sealevel;temperature;humidity
75136;BME280;63707;52.212;9.540;2023-08-12T00:01:32;100144.44;;;18.50;100.00
75136;BME280;63707;52.212;9.540;2023-08-12T00:03:57;100155.16;;;18.47;100.00
75136;BME280;63707;52.212;9.540;2023-08-12T00:06:23;100142.63;;;18.39;100.00
75136;BME280;63707;52.212;9.540;2023-08-12T00:08:50;100138.91;;;18.29;100.00
75136;BME280;63707;52.212;9.540;2023-08-12T00:11:15;100142.69;;;18.22;100.00
75136;BME280;63707;52.212;9.540;2023-08-12T00:13:41;100142.03;;;18.15;100.00
75136;BME280;63707;52.212;9.540;2023-08-12T00:16:06;100135.34;;;18.11;100.00
75136;BME280;63707;52.212;9.540;2023-08-12T00:18:32;100137.47;;;18.04;100.00
75136;BME280;63707;52.212;9.540;2023-08-12T00:21:05;100143.56;;;17.89;100.00
75136;BME280;63707;52.212;9.540;2023-08-12T00:23:31;100130.78;;;17.83;100.00
75136;BME280;63707;52.212;9.540;2023-08-12T00:25:59;100125.53;;;17.82;100.00
75136;BME280;63707;52.212;9.540;2023-08-12T00:28:24;100124.69;;;17.81;100.00
75136;BME280;63707;52.212;9.540;2023-08-12T00:30:50;100119.44;;;17.80;100.00
75136;BME280;63707;52.212;9.540;2023-08-12T00:33:15;100121.94;;;17.81;100.00
75136;BME280;63707;52.212;9.540;2023-08-12T00:35:40;100120.69;;;17.72;100.00
75136;BME280;63707;52.212;9.540;2023-08-12T00:38:06;100112.56;;;17.66;100.00
75136;BME280;63707;52.212;9.540;2023-08-12T00:40:31;100113.09;;;17.79;100.00
75136;BME280;63707;52.212;9.540;2023-08-12T00:42:59;100116.53;;;17.70;100.00
75136;BME280;63707;52.212;9.540;2023-08-12T00:45:25;100104.75;;;17.74;100.00
75136;BME280;63707;52.212;9.540;2023-08-12T00:47:51;100097.50;;;17.68;100.00
75136;BME280;63707;52.212;9.540;2023-08-12T00:50:16;100097.06;;;17.76;100.00
75136;BME280;63707;52.212;9.540;2023-08-12T00:52:42;100091.38;;;17.83;100.00
75136;BME280;63707;52.212;9.540;2023-08-12T00:55:08;100088.34;;;17.84;100.00
75136;BME280;63707;52.212;9.540;2023-08-12T00:57:33;100091.94;;;17.85;100.00
75136;BME280;63707;52.212;9.540;2023-08-12T01:00:02;100081.50;;;17.87;100.00
75136;BME280;63707;52.212;9.540;2023-08-12T01:02:29;100081.81;;;17.90;100.00
75136;BME280;63707;52.212;9.540;2023-08-12T01:04:54;100083.25;;;17.93;100.00
75136;BME280;63707;52.212;9.540;2023-08-12T01:07:20;100077.81;;;17.98;100.00
75136;BME280;63707;52.212;9.540;2023-08-12T01:09:46;100077.22;;;17.96;100.00
75136;BME280;63707;52.212;9.540;2023-08-12T01:12:13;100061.50;;;17.97;100.00
75136;BME280;63707;52.212;9.540;2023-08-12T01:17:20;100056.63;;;17.82;100.00
75136;BME280;63707;52.212;9.540;2023-08-12T01:19:47;100065.59;;;17.94;100.00
75136;BME280;63707;52.212;9.540;2023-08-12T01:22:13;100055.59;;;18.05;100.00
75136;BME280;63707;52.212;9.540;2023-08-12T01:24:42;100057.19;;;18.66;100.00
75136;BME280;63707;52.212;9.540;2023-08-12T01:27:09;100060.50;;;18.68;100.00
75136;BME280;63707;52.212;9.540;2023-08-12T01:29:38;100069.22;;;18.60;100.00
75136;BME280;63707;52.212;9.540;2023-08-12T01:32:09;100059.75;;;18.51;100.00
75136;BME280;63707;52.212;9.540;2023-08-12T01:34:42;100058.25;;;18.43;100.00
75136;BME280;63707;52.212;9.540;2023-08-12T01:37:11;100052.16;;;18.41;100.00
75136;BME280;63707;52.212;9.540;2023-08-12T01:39:41;100053.50;;;18.39;100.00
75136;BME280;63707;52.212;9.540;2023-08-12T01:42:09;100046.66;;;18.41;100.00
75136;BME280;63707;52.212;9.540;2023-08-12T01:44:35;100051.28;;;18.36;100.00
75136;BME280;63707;52.212;9.540;2023-08-12T01:47:01;100047.47;;;18.42;100.00
75136;BME280;63707;52.212;9.540;2023-08-12T01:49:26;100040.28;;;18.41;100.00
75136;BME280;63707;52.212;9.540;2023-08-12T01:51:52;100035.69;;;18.46;100.00
75136;BME280;63707;52.212;9.540;2023-08-12T01:54:17;100039.88;;;18.76;100.00
75136;BME280;63707;52.212;9.540;2023-08-12T01:56:44;100041.72;;;18.65;100.00
75136;BME280;63707;52.212;9.540;2023-08-12T01:59:09;100049.75;;;18.67;100.00
75136;BME280;63707;52.212;9.540;2023-08-12T02:01:35;100053.06;;;18.69;100.00
75136;BME280;63707;52.212;9.540;2023-08-12T02:04:00;100051.22;;;18.52;100.00
75136;BME280;63707;52.212;9.540;2023-08-12T02:06:26;100065.31;;;18.56;100.00
75136;BME280;63707;52.212;9.540;2023-08-12T02:08:51;100096.84;;;20.10;100.00
75136;BME280;63707;52.212;9.540;2023-08-12T02:11:17;100099.75;;;20.35;100.00
75136;BME280;63707;52.212;9.540;2023-08-12T02:13:44;100106.38;;;20.97;100.00
75136;BME280;63707;52.212;9.540;2023-08-12T02:16:09;100109.13;;;20.87;100.00
75136;BME280;63707;52.212;9.540;2023-08-12T02:18:35;100113.81;;;20.81;100.00
75136;BME280;63707;52.212;9.540;2023-08-12T02:21:00;100107.09;;;20.72;100.00
75136;BME280;63707;52.212;9.540;2023-08-12T02:23:26;100106.28;;;20.71;100.00
75136;BME280;63707;52.212;9.540;2023-08-12T02:25:52;100109.56;;;20.63;100.00
75136;BME280;63707;52.212;9.540;2023-08-12T02:28:17;100088.53;;;20.67;100.00
75136;BME280;63707;52.212;9.540;2023-08-12T02:30:44;100085.78;;;20.67;100.00
75136;BME280;63707;52.212;9.540;2023-08-12T02:33:09;100083.91;;;20.83;100.00
75136;BME280;63707;52.212;9.540;2023-08-12T02:35:35;100091.06;;;20.79;100.00
75136;BME280;63707;52.212;9.540;2023-08-12T02:38:00;100086.13;;;20.91;100.00
75136;BME280;63707;52.212;9.540;2023-08-12T02:40:26;100091.94;;;20.90;100.00
75136;BME280;63707;52.212;9.540;2023-08-12T02:42:51;100088.56;;;20.72;100.00
75136;BME280;63707;52.212;9.540;2023-08-12T02:45:17;100085.00;;;20.82;100.00
75136;BME280;63707;52.212;9.540;2023-08-12T02:47:44;100086.13;;;20.81;100.00
75136;BME280;63707;52.212;9.540;2023-08-12T02:50:09;100094.72;;;20.95;100.00
75136;BME280;63707;52.212;9.540;2023-08-12T02:52:35;100090.50;;;20.77;100.00
75136;BME280;63707;52.212;9.540;2023-08-12T02:55:00;100092.13;;;20.68;100.00
75136;BME280;63707;52.212;9.540;2023-08-12T02:57:26;100098.25;;;20.70;100.00
75136;BME280;63707;52.212;9.540;2023-08-12T02:59:51;100092.16;;;20.73;100.00
75136;BME280;63707;52.212;9.540;2023-08-12T03:02:17;100099.09;;;20.75;100.00
75136;BME280;63707;52.212;9.540;2023-08-12T03:04:43;100105.44;;;20.66;100.00
75136;BME280;63707;52.212;9.540;2023-08-12T03:07:09;100111.75;;;20.56;100.00
75136;BME280;63707;52.212;9.540;2023-08-12T03:09:35;100110.34;;;20.43;100.00
75136;BME280;63707;52.212;9.540;2023-08-12T03:12:00;100123.22;;;20.33;100.00
75136;BME280;63707;52.212;9.540;2023-08-12T03:14:28;100110.19;;;20.23;100.00
75136;BME280;63707;52.212;9.540;2023-08-12T03:16:54;100114.25;;;20.10;100.00
75136;BME280;63707;52.212;9.540;2023-08-12T03:19:20;100111.16;;;19.97;100.00
75136;BME280;63707;52.212;9.540;2023-08-12T03:21:46;100117.78;;;19.96;100.00
75136;BME280;63707;52.212;9.540;2023-08-12T03:24:12;100103.38;;;19.94;100.00
75136;BME280;63707;52.212;9.540;2023-08-12T03:26:37;100092.28;;;19.89;100.00
75136;BME280;63707;52.212;9.540;2023-08-12T03:29:03;100081.72;;;19.86;100.00
75136;BME280;63707;52.212;9.540;2023-08-12T03:31:29;100080.31;;;19.78;100.00
75136;BME280;63707;52.212;9.540;2023-08-12T03:33:54;100093.50;;;19.66;100.00
75136;BME280;63707;52.212;9.540;2023-08-12T03:36:20;100096.56;;;19.69;100.00
75136;BME280;63707;52.212;9.540;2023-08-12T03:38:46;100090.16;;;19.64;100.00
75136;BME280;63707;52.212;9.540;2023-08-12T03:41:12;100086.03;;;19.66;100.00
75136;BME280;63707;52.212;9.540;2023-08-12T03:43:38;100085.69;;;19.58;100.00
75136;BME280;63707;52.212;9.540;2023-08-12T03:46:03;100075.44;;;19.53;100.00
75136;BME280;63707;52.212;9.540;2023-08-12T03:48:29;100078.69;;;19.50;100.00
75136;BME280;63707;52.212;9.540;2023-08-12T03:50:54;100088.06;;;19.44;100.00
75136;BME280;63707;52.212;9.540;2023-08-12T03:53:20;100090.63;;;19.24;100.00
75136;BME280;63707;52.212;9.540;2023-08-12T03:55:47;100093.59;;;18.90;100.00
75136;BME280;63707;52.212;9.540;2023-08-12T03:58:12;100103.44;;;18.81;100.00
75136;BME280;63707;52.212;9.540;2023-08-12T04:00:40;100102.56;;;18.75;100.00
75136;BME280;63707;52.212;9.540;2023-08-12T04:03:05;100094.16;;;18.65;100.00
75136;BME280;63707;52.212;9.540;2023-08-12T04:05:31;100086.25;;;18.52;100.00
75136;BME280;63707;52.212;9.540;2023-08-12T04:07:56;100083.03;;;18.38;100.00
75136;BME280;63707;52.212;9.540;2023-08-12T04:10:22;100071.41;;;18.36;100.00
75136;BME280;63707;52.212;9.540;2023-08-12T04:12:49;100060.25;;;18.26;100.00
75136;BME280;63707;52.212;9.540;2023-08-12T04:15:14;100055.50;;;18.21;100.00
75136;BME280;63707;52.212;9.540;2023-08-12T04:17:40;100052.19;;;18.19;100.00
75136;BME280;63707;52.212;9.540;2023-08-12T04:20:07;100064.50;;;18.12;100.00
75136;BME280;63707;52.212;9.540;2023-08-12T04:22:33;100056.59;;;17.99;100.00
75136;BME280;63707;52.212;9.540;2023-08-12T04:24:58;100050.66;;;17.90;100.00
75136;BME280;63707;52.212;9.540;2023-08-12T04:27:24;100051.56;;;17.74;100.00
75136;BME280;63707;52.212;9.540;2023-08-12T04:29:50;100048.88;;;17.79;100.00
75136;BME280;63707;52.212;9.540;2023-08-12T04:32:16;100038.78;;;17.68;100.00
75136;BME280;63707;52.212;9.540;2023-08-12T04:34:41;100034.25;;;17.61;100.00
75136;BME280;63707;52.212;9.540;2023-08-12T04:37:07;100030.34;;;17.57;100.00
75136;BME280;63707;52.212;9.540;2023-08-12T04:39:32;100020.56;;;17.50;100.00
75136;BME280;63707;52.212;9.540;2023-08-12T04:41:58;99999.53;;;17.60;100.00
75136;BME280;63707;52.212;9.540;2023-08-12T04:44:23;99992.25;;;17.71;100.00
75136;BME280;63707;52.212;9.540;2023-08-12T04:46:50;99980.91;;;17.68;100.00
75136;BME280;63707;52.212;9.540;2023-08-12T04:49:16;99981.31;;;17.76;100.00
75136;BME280;63707;52.212;9.540;2023-08-12T04:51:41;99970.78;;;17.73;100.00
75136;BME280;63707;52.212;9.540;2023-08-12T04:54:07;99968.13;;;17.61;100.00
75136;BME280;63707;52.212;9.540;2023-08-12T04:56:33;99964.41;;;17.51;100.00
75136;BME280;63707;52.212;9.540;2023-08-12T04:58:58;99971.47;;;17.47;100.00
75136;BME280;63707;52.212;9.540;2023-08-12T05:01:24;99975.44;;;17.34;100.00
75136;BME280;63707;52.212;9.540;2023-08-12T05:03:51;99977.44;;;17.39;100.00
75136;BME280;63707;52.212;9.540;2023-08-12T05:06:16;99979.69;;;17.42;100.00
75136;BME280;63707;52.212;9.540;2023-08-12T05:08:41;99978.59;;;17.43;100.00
75136;BME280;63707;52.212;9.540;2023-08-12T05:11:07;99973.34;;;17.41;100.00
75136;BME280;63707;52.212;9.540;2023-08-12T05:13:33;99975.00;;;17.42;100.00
75136;BME280;63707;52.212;9.540;2023-08-12T05:15:59;99977.41;;;17.55;100.00
75136;BME280;63707;52.212;9.540;2023-08-12T05:18:24;99976.59;;;17.55;100.00
75136;BME280;63707;52.212;9.540;2023-08-12T05:20:52;99979.84;;;17.52;100.00
75136;BME280;63707;52.212;9.540;2023-08-12T05:23:18;99979.91;;;17.57;100.00
75136;BME280;63707;52.212;9.540;2023-08-12T05:25:43;99976.34;;;17.56;100.00
75136;BME280;63707;52.212;9.540;2023-08-12T05:28:09;99980.81;;;17.62;100.00
75136;BME280;63707;52.212;9.540;2023-08-12T05:30:34;99983.25;;;17.59;100.00
75136;BME280;63707;52.212;9.540;2023-08-12T05:33:00;99984.41;;;17.63;100.00
75136;BME280;63707;52.212;9.540;2023-08-12T05:35:25;99978.81;;;17.58;100.00
75136;BME280;63707;52.212;9.540;2023-08-12T05:37:52;99974.06;;;17.70;100.00
75136;BME280;63707;52.212;9.540;2023-08-12T05:40:18;99971.13;;;17.60;100.00
75136;BME280;63707;52.212;9.540;2023-08-12T05:42:43;99971.88;;;17.72;100.00
75136;BME280;63707;52.212;9.540;2023-08-12T05:45:09;99959.25;;;17.76;100.00
75136;BME280;63707;52.212;9.540;2023-08-12T05:47:34;99953.88;;;17.86;100.00
75136;BME280;63707;52.212;9.540;2023-08-12T05:50:00;99945.16;;;17.94;100.00
75136;BME280;63707;52.212;9.540;2023-08-12T05:52:26;99936.69;;;18.01;100.00
75136;BME280;63707;52.212;9.540;2023-08-12T05:54:52;99926.56;;;18.07;100.00
75136;BME280;63707;52.212;9.540;2023-08-12T05:57:18;99922.50;;;17.92;100.00
75136;BME280;63707;52.212;9.540;2023-08-12T05:59:43;99915.22;;;18.03;100.00
75136;BME280;63707;52.212;9.540;2023-08-12T06:02:09;99927.03;;;17.99;100.00
75136;BME280;63707;52.212;9.540;2023-08-12T06:04:34;99919.66;;;18.04;100.00
75136;BME280;63707;52.212;9.540;2023-08-12T06:07:00;99921.06;;;18.07;100.00
75136;BME280;63707;52.212;9.540;2023-08-12T06:09:25;99918.09;;;18.13;100.00
75136;BME280;63707;52.212;9.540;2023-08-12T06:11:52;99916.84;;;18.26;100.00
75136;BME280;63707;52.212;9.540;2023-08-12T06:14:18;99909.78;;;18.40;100.00
75136;BME280;63707;52.212;9.540;2023-08-12T06:16:43;99903.31;;;18.51;100.00
75136;BME280;63707;52.212;9.540;2023-08-12T06:19:09;99914.47;;;18.62;100.00
75136;BME280;63707;52.212;9.540;2023-08-12T06:21:34;99916.84;;;18.85;100.00
75136;BME280;63707;52.212;9.540;2023-08-12T06:24:00;99926.78;;;18.86;100.00
75136;BME280;63707;52.212;9.540;2023-08-12T06:26:25;99919.50;;;18.70;100.00
75136;BME280;63707;52.212;9.540;2023-08-12T06:28:52;99915.19;;;18.84;100.00
75136;BME280;63707;52.212;9.540;2023-08-12T06:31:17;99924.72;;;18.98;100.00
75136;BME280;63707;52.212;9.540;2023-08-12T06:33:43;99917.09;;;19.15;100.00
75136;BME280;63707;52.212;9.540;2023-08-12T06:36:08;99919.41;;;19.34;100.00
75136;BME280;63707;52.212;9.540;2023-08-12T06:38:34;99927.16;;;19.37;100.00
75136;BME280;63707;52.212;9.540;2023-08-12T06:40:59;99930.72;;;19.32;100.00
75136;BME280;63707;52.212;9.540;2023-08-12T06:43:25;99928.09;;;19.10;100.00
75136;BME280;63707;52.212;9.540;2023-08-12T06:45:51;99928.31;;;19.41;100.00
75136;BME280;63707;52.212;9.540;2023-08-12T06:48:17;99934.88;;;19.35;100.00
75136;BME280;63707;52.212;9.540;2023-08-12T06:50:42;99936.22;;;19.27;100.00
75136;BME280;63707;52.212;9.540;2023-08-12T06:53:08;99942.47;;;19.12;100.00
75136;BME280;63707;52.212;9.540;2023-08-12T06:55:34;99937.25;;;19.53;100.00
75136;BME280;63707;52.212;9.540;2023-08-12T06:58:00;99933.44;;;19.64;100.00
75136;BME280;63707;52.212;9.540;2023-08-12T07:00:26;99929.06;;;19.78;100.00
75136;BME280;63707;52.212;9.540;2023-08-12T07:02:53;99931.28;;;19.76;100.00
75136;BME280;63707;52.212;9.540;2023-08-12T07:05:18;99933.66;;;19.53;100.00
75136;BME280;63707;52.212;9.540;2023-08-12T07:07:44;99927.91;;;19.64;100.00
75136;BME280;63707;52.212;9.540;2023-08-12T07:10:10;99930.25;;;19.40;100.00
75136;BME280;63707;52.212;9.540;2023-08-12T07:12:35;99922.47;;;19.37;100.00
75136;BME280;63707;52.212;9.540;2023-08-12T07:15:01;99929.69;;;19.01;100.00
75136;BME280;63707;52.212;9.540;2023-08-12T07:17:27;99922.03;;;19.13;100.00
75136;BME280;63707;52.212;9.540;2023-08-12T07:19:53;99915.78;;;19.28;100.00
75136;BME280;63707;52.212;9.540;2023-08-12T07:22:19;99909.75;;;19.36;100.00
75136;BME280;63707;52.212;9.540;2023-08-12T07:24:45;99905.31;;;19.35;100.00
75136;BME280;63707;52.212;9.540;2023-08-12T07:27:11;99902.84;;;19.39;100.00
75136;BME280;63707;52.212;9.540;2023-08-12T07:29:36;99902.94;;;19.49;100.00
75136;BME280;63707;52.212;9.540;2023-08-12T07:32:02;99893.34;;;19.62;100.00
75136;BME280;63707;52.212;9.540;2023-08-12T07:34:28;99891.41;;;19.57;100.00
75136;BME280;63707;52.212;9.540;2023-08-12T07:36:55;99886.97;;;19.56;100.00
75136;BME280;63707;52.212;9.540;2023-08-12T07:39:20;99882.06;;;19.78;100.00
75136;BME280;63707;52.212;9.540;2023-08-12T07:41:46;99890.88;;;19.70;100.00
75136;BME280;63707;52.212;9.540;2023-08-12T07:44:12;99894.97;;;19.58;100.00
75136;BME280;63707;52.212;9.540;2023-08-12T07:46:37;99898.63;;;19.68;100.00
75136;BME280;63707;52.212;9.540;2023-08-12T07:49:03;99901.69;;;19.72;100.00
75136;BME280;63707;52.212;9.540;2023-08-12T07:51:29;99912.47;;;19.73;100.00
75136;BME280;63707;52.212;9.540;2023-08-12T07:53:56;99914.69;;;19.76;100.00
75136;BME280;63707;52.212;9.540;2023-08-12T07:56:22;99909.72;;;19.78;100.00
75136;BME280;63707;52.212;9.540;2023-08-12T07:58:47;99903.16;;;19.95;100.00
75136;BME280;63707;52.212;9.540;2023-08-12T08:01:13;99896.38;;;20.48;100.00
75136;BME280;63707;52.212;9.540;2023-08-12T08:03:39;99908.72;;;20.10;100.00
75136;BME280;63707;52.212;9.540;2023-08-12T08:06:04;99902.44;;;20.35;100.00
75136;BME280;63707;52.212;9.540;2023-08-12T08:08:30;99904.88;;;20.26;100.00
75136;BME280;63707;52.212;9.540;2023-08-12T08:10:56;99908.00;;;20.55;100.00
75136;BME280;63707;52.212;9.540;2023-08-12T08:13:22;99921.50;;;20.31;100.00
75136;BME280;63707;52.212;9.540;2023-08-12T08:15:47;99910.97;;;20.33;100.00
75136;BME280;63707;52.212;9.540;2023-08-12T08:18:13;99908.47;;;20.17;100.00
75136;BME280;63707;52.212;9.540;2023-08-12T08:20:41;99907.38;;;20.33;100.00
75136;BME280;63707;52.212;9.540;2023-08-12T08:23:07;99907.06;;;20.14;100.00
75136;BME280;63707;52.212;9.540;2023-08-12T08:25:32;99899.06;;;20.28;100.00
75136;BME280;63707;52.212;9.540;2023-08-12T08:27:59;99886.06;;;20.13;100.00
75136;BME280;63707;52.212;9.540;2023-08-12T08:30:25;99886.06;;;20.33;100.00
75136;BME280;63707;52.212;9.540;2023-08-12T08:32:50;99884.69;;;20.26;100.00
75136;BME280;63707;52.212;9.540;2023-08-12T08:35:16;99884.50;;;20.42;100.00
75136;BME280;63707;52.212;9.540;2023-08-12T08:37:42;99885.56;;;20.36;100.00
75136;BME280;63707;52.212;9.540;2023-08-12T08:40:08;99879.69;;;20.18;100.00
75136;BME280;63707;52.212;9.540;2023-08-12T08:42:34;99881.38;;;20.29;100.00
75136;BME280;63707;52.212;9.540;2023-08-12T08:45:02;99879.72;;;20.28;100.00
75136;BME280;63707;52.212;9.540;2023-08-12T08:47:29;99875.31;;;20.37;100.00
75136;BME280;63707;52.212;9.540;2023-08-12T08:49:55;99870.94;;;20.56;100.00
75136;BME280;63707;52.212;9.540;2023-08-12T08:52:24;99874.78;;;20.81;100.00
75136;BME280;63707;52.212;9.540;2023-08-12T08:54:49;99878.09;;;20.78;100.00
75136;BME280;63707;52.212;9.540;2023-08-12T08:57:15;99881.44;;;20.90;100.00
75136;BME280;63707;52.212;9.540;2023-08-12T08:59:41;99884.75;;;21.02;100.00
75136;BME280;63707;52.212;9.540;2023-08-12T09:02:10;99883.91;;;20.76;100.00
75136;BME280;63707;52.212;9.540;2023-08-12T09:04:38;99885.59;;;20.67;100.00
75136;BME280;63707;52.212;9.540;2023-08-12T09:07:04;99885.31;;;20.73;100.00
75136;BME280;63707;52.212;9.540;2023-08-12T09:09:31;99890.28;;;20.77;100.00
75136;BME280;63707;52.212;9.540;2023-08-12T09:11:58;99892.75;;;21.14;100.00
75136;BME280;63707;52.212;9.540;2023-08-12T09:14:23;99894.69;;;21.28;100.00
75136;BME280;63707;52.212;9.540;2023-08-12T09:16:49;99895.44;;;21.59;100.00
75136;BME280;63707;52.212;9.540;2023-08-12T09:19:16;99903.44;;;21.71;100.00
75136;BME280;63707;52.212;9.540;2023-08-12T09:21:42;99896.28;;;21.60;100.00
75136;BME280;63707;52.212;9.540;2023-08-12T09:24:07;99884.03;;;21.76;100.00
75136;BME280;63707;52.212;9.540;2023-08-12T09:26:33;99879.31;;;21.77;100.00
75136;BME280;63707;52.212;9.540;2023-08-12T09:28:59;99884.28;;;21.80;100.00
75136;BME280;63707;52.212;9.540;2023-08-12T09:31:27;99872.91;;;21.81;100.00
75136;BME280;63707;52.212;9.540;2023-08-12T09:33:53;99877.97;;;21.59;100.00
75136;BME280;63707;52.212;9.540;2023-08-12T09:36:23;99865.00;;;21.49;100.00
75136;BME280;63707;52.212;9.540;2023-08-12T09:38:49;99857.75;;;21.58;100.00
75136;BME280;63707;52.212;9.540;2023-08-12T09:41:15;99864.41;;;21.52;100.00
75136;BME280;63707;52.212;9.540;2023-08-12T09:43:41;99856.06;;;21.62;100.00
75136;BME280;63707;52.212;9.540;2023-08-12T09:46:10;99855.56;;;21.50;100.00
75136;BME280;63707;52.212;9.540;2023-08-12T09:48:37;99864.16;;;21.49;100.00
75136;BME280;63707;52.212;9.540;2023-08-12T09:51:03;99861.72;;;21.37;100.00
75136;BME280;63707;52.212;9.540;2023-08-12T09:53:30;99866.72;;;21.35;100.00
75136;BME280;63707;52.212;9.540;2023-08-12T09:56:00;99862.81;;;21.26;100.00
75136;BME280;63707;52.212;9.540;2023-08-12T09:58:29;99869.50;;;21.04;100.00
75136;BME280;63707;52.212;9.540;2023-08-12T10:00:57;99878.94;;;21.03;100.00
75136;BME280;63707;52.212;9.540;2023-08-12T10:03:23;99865.03;;;21.19;100.00
75136;BME280;63707;52.212;9.540;2023-08-12T10:05:49;99842.06;;;21.23;100.00
75136;BME280;63707;52.212;9.540;2023-08-12T10:08:16;99848.63;;;21.53;100.00
75136;BME280;63707;52.212;9.540;2023-08-12T10:10:44;99862.16;;;21.64;100.00
75136;BME280;63707;52.212;9.540;2023-08-12T10:13:10;99871.63;;;21.53;100.00
75136;BME280;63707;52.212;9.540;2023-08-12T10:15:37;99878.41;;;22.75;100.00
75136;BME280;63707;52.212;9.540;2023-08-12T10:18:03;99898.94;;;24.32;100.00
75136;BME280;63707;52.212;9.540;2023-08-12T10:20:31;99909.13;;;23.22;100.00
75136;BME280;63707;52.212;9.540;2023-08-12T10:22:59;99906.06;;;23.24;100.00
75136;BME280;63707;52.212;9.540;2023-08-12T10:25:31;99898.72;;;23.33;100.00
75136;BME280;63707;52.212;9.540;2023-08-12T10:27:58;99909.72;;;23.72;100.00
75136;BME280;63707;52.212;9.540;2023-08-12T10:30:24;99887.13;;;23.98;100.00
75136;BME280;63707;52.212;9.540;2023-08-12T10:32:53;99862.81;;;24.03;100.00
75136;BME280;63707;52.212;9.540;2023-08-12T10:35:18;99869.28;;;23.56;100.00
75136;BME280;63707;52.212;9.540;2023-08-12T10:37:48;99872.59;;;25.68;100.00
75136;BME280;63707;52.212;9.540;2023-08-12T10:40:20;99873.00;;;25.76;100.00
75136;BME280;63707;52.212;9.540;2023-08-12T10:42:46;99867.44;;;25.02;100.00
75136;BME280;63707;52.212;9.540;2023-08-12T10:45:15;99863.63;;;24.79;100.00
75136;BME280;63707;52.212;9.540;2023-08-12T10:47:41;99861.41;;;24.62;100.00
75136;BME280;63707;52.212;9.540;2023-08-12T10:50:16;99860.72;;;24.52;100.00
75136;BME280;63707;52.212;9.540;2023-08-12T10:52:43;99855.97;;;24.71;100.00
75136;BME280;63707;52.212;9.540;2023-08-12T10:55:21;99861.75;;;24.74;100.00
75136;BME280;63707;52.212;9.540;2023-08-12T10:57:48;99853.94;;;25.23;100.00
75136;BME280;63707;52.212;9.540;2023-08-12T11:00:16;99853.06;;;24.43;100.00
75136;BME280;63707;52.212;9.540;2023-08-12T11:02:44;99853.84;;;24.82;100.00
75136;BME280;63707;52.212;9.540;2023-08-12T11:05:11;99855.41;;;25.34;100.00
75136;BME280;63707;52.212;9.540;2023-08-12T11:07:38;99866.91;;;25.00;100.00
75136;BME280;63707;52.212;9.540;2023-08-12T11:10:09;99856.31;;;25.16;100.00
75136;BME280;63707;52.212;9.540;2023-08-12T11:12:35;99847.03;;;24.55;100.00
75136;BME280;63707;52.212;9.540;2023-08-12T11:15:03;99841.34;;;24.79;100.00
75136;BME280;63707;52.212;9.540;2023-08-12T11:17:34;99842.22;;;24.23;100.00
75136;BME280;63707;52.212;9.540;2023-08-12T11:20:00;99839.06;;;25.41;100.00
75136;BME280;63707;52.212;9.540;2023-08-12T11:22:26;99849.31;;;24.86;100.00
75136;BME280;63707;52.212;9.540;2023-08-12T11:24:52;99838.69;;;24.36;100.00
75136;BME280;63707;52.212;9.540;2023-08-12T11:27:18;99842.22;;;24.23;100.00
75136;BME280;63707;52.212;9.540;2023-08-12T11:29:43;99839.94;;;24.06;100.00
75136;BME280;63707;52.212;9.540;2023-08-12T11:32:09;99837.19;;;23.64;100.00
75136;BME280;63707;52.212;9.540;2023-08-12T11:34:37;99832.31;;;23.55;100.00
75136;BME280;63707;52.212;9.540;2023-08-12T11:37:03;99830.09;;;23.52;100.00
75136;BME280;63707;52.212;9.540;2023-08-12T11:39:29;99825.38;;;23.29;100.00
75136;BME280;63707;52.212;9.540;2023-08-12T11:41:55;99818.03;;;23.38;100.00
75136;BME280;63707;52.212;9.540;2023-08-12T11:44:21;99817.06;;;23.48;100.00
75136;BME280;63707;52.212;9.540;2023-08-12T11:46:47;99801.25;;;23.24;100.00
75136;BME280;63707;52.212;9.540;2023-08-12T11:49:13;99810.44;;;23.44;100.00
75136;BME280;63707;52.212;9.540;2023-08-12T11:51:40;99806.25;;;23.46;100.00
75136;BME280;63707;52.212;9.540;2023-08-12T11:54:08;99794.00;;;23.47;100.00
75136;BME280;63707;52.212;9.540;2023-08-12T11:56:34;99801.41;;;24.84;100.00
75136;BME280;63707;52.212;9.540;2023-08-12T11:59:00;99807.66;;;24.62;100.00
75136;BME280;63707;52.212;9.540;2023-08-12T12:01:26;99801.28;;;24.24;100.00
75136;BME280;63707;52.212;9.540;2023-08-12T12:03:53;99803.56;;;24.22;100.00
75136;BME280;63707;52.212;9.540;2023-08-12T12:06:28;99795.72;;;23.86;100.00
75136;BME280;63707;52.212;9.540;2023-08-12T12:08:55;99784.22;;;23.74;100.00
75136;BME280;63707;52.212;9.540;2023-08-12T12:11:21;99785.94;;;24.07;100.00
75136;BME280;63707;52.212;9.540;2023-08-12T12:13:46;99781.06;;;24.83;100.00
75136;BME280;63707;52.212;9.540;2023-08-12T12:16:12;99794.03;;;26.11;100.00
75136;BME280;63707;52.212;9.540;2023-08-12T12:18:38;99798.91;;;27.74;100.00
75136;BME280;63707;52.212;9.540;2023-08-12T12:21:03;99801.63;;;28.31;100.00
75136;BME280;63707;52.212;9.540;2023-08-12T12:23:30;99801.66;;;27.57;100.00
75136;BME280;63707;52.212;9.540;2023-08-12T12:26:01;99788.34;;;26.16;100.00
75136;BME280;63707;52.212;9.540;2023-08-12T12:28:27;99787.09;;;25.59;100.00
75136;BME280;63707;52.212;9.540;2023-08-12T12:30:52;99779.38;;;25.15;100.00
75136;BME280;63707;52.212;9.540;2023-08-12T12:33:18;99782.59;;;24.75;100.00
75136;BME280;63707;52.212;9.540;2023-08-12T12:35:43;99789.41;;;24.69;100.00
75136;BME280;63707;52.212;9.540;2023-08-12T12:38:09;99788.56;;;24.36;100.00
75136;BME280;63707;52.212;9.540;2023-08-12T12:40:35;99788.66;;;24.12;100.00
75136;BME280;63707;52.212;9.540;2023-08-12T12:43:01;99783.66;;;24.47;100.00